Terminal Aerodrome Forecast
Issued by NWS Sterling, VA

Current Version | Previous Version | Graphics & Text | Print | Product List | Glossary On
Versions: 1 2 3 4 5 6 7 8 9 10 11 12 13 14 15 16 17 18 19
909
FTUS41 KLWX 280238 AAA
TAFMRB
TAF AMD
KMRB 280238Z 2803/2824 VRB03KT 3SM BR SKC
     FM281200 VRB03KT 5SM BR BKN060
     FM281500 09004KT P6SM BKN040
     FM281900 10006KT P6SM BKN025
     FM282100 09006KT 5SM SHRA BR OVC015
     FM282300 08005KT 5SM SHRA BR OVC008=

USA.gov is the U.S. government's official web portal to all federal, state and local government web resources and services.